sensor_id;sensor_type;location;lat;lon;timestamp;temperature;humidity
35531;DHT22;21637;53.352;-6.356;2023-04-24T00:00:11;9.20;99.90
35531;DHT22;21637;53.352;-6.356;2023-04-24T00:02:40;9.10;99.90
35531;DHT22;21637;53.352;-6.356;2023-04-24T00:05:07;9.10;99.90
35531;DHT22;21637;53.352;-6.356;2023-04-24T00:07:34;9.20;99.90
35531;DHT22;21637;53.352;-6.356;2023-04-24T00:10:00;9.20;99.90
35531;DHT22;21637;53.352;-6.356;2023-04-24T00:12:26;9.20;99.90
35531;DHT22;21637;53.352;-6.356;2023-04-24T00:14:52;9.20;99.90
35531;DHT22;21637;53.352;-6.356;2023-04-24T00:17:18;9.10;99.90
35531;DHT22;21637;53.352;-6.356;2023-04-24T00:19:48;9.10;99.90
35531;DHT22;21637;53.352;-6.356;2023-04-24T00:22:16;9.00;99.90
35531;DHT22;21637;53.352;-6.356;2023-04-24T00:24:43;9.00;99.90
35531;DHT22;21637;53.352;-6.356;2023-04-24T00:27:09;9.00;99.90
35531;DHT22;21637;53.352;-6.356;2023-04-24T00:29:34;8.90;99.90
35531;DHT22;21637;53.352;-6.356;2023-04-24T00:32:00;8.90;99.90
35531;DHT22;21637;53.352;-6.356;2023-04-24T00:34:26;8.90;99.90
35531;DHT22;21637;53.352;-6.356;2023-04-24T00:36:51;8.80;99.90
35531;DHT22;21637;53.352;-6.356;2023-04-24T00:39:20;8.80;99.90
35531;DHT22;21637;53.352;-6.356;2023-04-24T00:41:46;8.70;99.90
35531;DHT22;21637;53.352;-6.356;2023-04-24T00:44:13;8.70;99.90
35531;DHT22;21637;53.352;-6.356;2023-04-24T00:46:40;8.60;99.90
35531;DHT22;21637;53.352;-6.356;2023-04-24T00:49:06;8.60;99.90
35531;DHT22;21637;53.352;-6.356;2023-04-24T00:51:32;8.50;99.90
35531;DHT22;21637;53.352;-6.356;2023-04-24T00:54:01;8.40;99.90
35531;DHT22;21637;53.352;-6.356;2023-04-24T00:56:27;8.40;99.90
35531;DHT22;21637;53.352;-6.356;2023-04-24T00:58:53;8.40;99.90
35531;DHT22;21637;53.352;-6.356;2023-04-24T01:01:20;8.40;99.90
35531;DHT22;21637;53.352;-6.356;2023-04-24T01:03:46;8.30;99.90
35531;DHT22;21637;53.352;-6.356;2023-04-24T01:06:13;8.30;99.90
35531;DHT22;21637;53.352;-6.356;2023-04-24T01:08:40;8.30;99.90
35531;DHT22;21637;53.352;-6.356;2023-04-24T01:11:06;8.30;99.90
35531;DHT22;21637;53.352;-6.356;2023-04-24T01:13:33;8.20;99.90
35531;DHT22;21637;53.352;-6.356;2023-04-24T01:15:59;8.20;99.90
35531;DHT22;21637;53.352;-6.356;2023-04-24T01:18:26;8.30;99.90
35531;DHT22;21637;53.352;-6.356;2023-04-24T01:20:53;8.20;99.90
35531;DHT22;21637;53.352;-6.356;2023-04-24T01:23:22;8.30;99.90
35531;DHT22;21637;53.352;-6.356;2023-04-24T01:25:48;8.30;99.90
35531;DHT22;21637;53.352;-6.356;2023-04-24T01:28:15;8.30;99.90
35531;DHT22;21637;53.352;-6.356;2023-04-24T01:30:41;8.30;99.90
35531;DHT22;21637;53.352;-6.356;2023-04-24T01:33:07;8.30;99.90
35531;DHT22;21637;53.352;-6.356;2023-04-24T01:35:33;8.30;99.90
35531;DHT22;21637;53.352;-6.356;2023-04-24T01:37:59;8.40;99.90
35531;DHT22;21637;53.352;-6.356;2023-04-24T01:40:25;8.30;99.90
35531;DHT22;21637;53.352;-6.356;2023-04-24T01:42:51;8.40;99.90
35531;DHT22;21637;53.352;-6.356;2023-04-24T01:45:18;8.40;99.90
35531;DHT22;21637;53.352;-6.356;2023-04-24T01:47:44;8.30;99.90
35531;DHT22;21637;53.352;-6.356;2023-04-24T01:50:10;8.40;99.90
35531;DHT22;21637;53.352;-6.356;2023-04-24T01:52:36;8.30;99.90
35531;DHT22;21637;53.352;-6.356;2023-04-24T01:55:05;8.30;99.90
35531;DHT22;21637;53.352;-6.356;2023-04-24T01:57:32;8.30;99.90
35531;DHT22;21637;53.352;-6.356;2023-04-24T01:59:58;8.20;99.90
35531;DHT22;21637;53.352;-6.356;2023-04-24T02:02:24;8.20;99.90
35531;DHT22;21637;53.352;-6.356;2023-04-24T02:04:53;8.30;99.90
35531;DHT22;21637;53.352;-6.356;2023-04-24T02:07:19;8.30;99.90
35531;DHT22;21637;53.352;-6.356;2023-04-24T02:09:45;8.30;99.90
35531;DHT22;21637;53.352;-6.356;2023-04-24T02:12:10;8.30;99.90
35531;DHT22;21637;53.352;-6.356;2023-04-24T02:14:36;8.30;99.90
35531;DHT22;21637;53.352;-6.356;2023-04-24T02:17:02;8.30;99.90
35531;DHT22;21637;53.352;-6.356;2023-04-24T02:19:28;8.30;99.90
35531;DHT22;21637;53.352;-6.356;2023-04-24T02:21:53;8.30;99.90
35531;DHT22;21637;53.352;-6.356;2023-04-24T02:24:19;8.30;99.90
35531;DHT22;21637;53.352;-6.356;2023-04-24T02:26:45;8.30;99.90
35531;DHT22;21637;53.352;-6.356;2023-04-24T02:29:10;8.30;99.90
35531;DHT22;21637;53.352;-6.356;2023-04-24T02:31:36;8.30;99.90
35531;DHT22;21637;53.352;-6.356;2023-04-24T02:34:02;8.30;99.90
35531;DHT22;21637;53.352;-6.356;2023-04-24T02:36:28;8.30;99.90
35531;DHT22;21637;53.352;-6.356;2023-04-24T02:38:53;8.40;99.90
35531;DHT22;21637;53.352;-6.356;2023-04-24T02:41:19;8.40;99.90
35531;DHT22;21637;53.352;-6.356;2023-04-24T02:43:45;8.40;99.90
35531;DHT22;21637;53.352;-6.356;2023-04-24T02:46:11;8.30;99.90
35531;DHT22;21637;53.352;-6.356;2023-04-24T02:48:37;8.30;99.90
35531;DHT22;21637;53.352;-6.356;2023-04-24T02:51:03;8.30;99.90
35531;DHT22;21637;53.352;-6.356;2023-04-24T02:53:28;8.30;99.90
35531;DHT22;21637;53.352;-6.356;2023-04-24T02:55:56;8.30;99.90
35531;DHT22;21637;53.352;-6.356;2023-04-24T02:58:22;8.40;99.90
35531;DHT22;21637;53.352;-6.356;2023-04-24T03:00:48;8.40;99.90
35531;DHT22;21637;53.352;-6.356;2023-04-24T03:03:14;8.40;99.90
35531;DHT22;21637;53.352;-6.356;2023-04-24T03:05:40;8.40;99.90
35531;DHT22;21637;53.352;-6.356;2023-04-24T03:08:06;8.40;99.90
35531;DHT22;21637;53.352;-6.356;2023-04-24T03:10:32;8.40;99.90
35531;DHT22;21637;53.352;-6.356;2023-04-24T03:12:57;8.40;99.90
35531;DHT22;21637;53.352;-6.356;2023-04-24T03:15:23;8.40;99.90
35531;DHT22;21637;53.352;-6.356;2023-04-24T03:17:49;8.40;99.90
35531;DHT22;21637;53.352;-6.356;2023-04-24T03:20:15;8.40;99.90
35531;DHT22;21637;53.352;-6.356;2023-04-24T03:22:40;8.40;99.90
35531;DHT22;21637;53.352;-6.356;2023-04-24T03:25:06;8.40;99.90
35531;DHT22;21637;53.352;-6.356;2023-04-24T03:27:34;8.40;99.90
35531;DHT22;21637;53.352;-6.356;2023-04-24T03:30:00;8.50;99.90
35531;DHT22;21637;53.352;-6.356;2023-04-24T03:32:26;8.50;99.90
35531;DHT22;21637;53.352;-6.356;2023-04-24T03:34:52;8.50;99.90
35531;DHT22;21637;53.352;-6.356;2023-04-24T03:37:17;8.60;99.90
35531;DHT22;21637;53.352;-6.356;2023-04-24T03:39:43;8.60;99.90
35531;DHT22;21637;53.352;-6.356;2023-04-24T03:42:09;8.50;99.90
35531;DHT22;21637;53.352;-6.356;2023-04-24T03:44:35;8.50;99.90
35531;DHT22;21637;53.352;-6.356;2023-04-24T03:47:01;8.50;99.90
35531;DHT22;21637;53.352;-6.356;2023-04-24T03:49:27;8.50;99.90
35531;DHT22;21637;53.352;-6.356;2023-04-24T03:51:53;8.40;99.90
35531;DHT22;21637;53.352;-6.356;2023-04-24T03:54:19;8.40;99.90
35531;DHT22;21637;53.352;-6.356;2023-04-24T03:56:45;8.30;99.90
35531;DHT22;21637;53.352;-6.356;2023-04-24T03:59:11;8.30;99.90
35531;DHT22;21637;53.352;-6.356;2023-04-24T04:01:37;8.30;99.90
35531;DHT22;21637;53.352;-6.356;2023-04-24T04:04:03;8.40;99.90
35531;DHT22;21637;53.352;-6.356;2023-04-24T04:06:29;8.40;99.90
35531;DHT22;21637;53.352;-6.356;2023-04-24T04:08:58;8.40;99.90
35531;DHT22;21637;53.352;-6.356;2023-04-24T04:11:24;8.40;99.90
35531;DHT22;21637;53.352;-6.356;2023-04-24T04:13:50;8.40;99.90
35531;DHT22;21637;53.352;-6.356;2023-04-24T04:16:16;8.40;99.90
35531;DHT22;21637;53.352;-6.356;2023-04-24T04:18:43;8.30;99.90
35531;DHT22;21637;53.352;-6.356;2023-04-24T04:21:09;8.30;99.90
35531;DHT22;21637;53.352;-6.356;2023-04-24T04:23:35;8.30;99.90
35531;DHT22;21637;53.352;-6.356;2023-04-24T04:26:01;8.40;99.90
35531;DHT22;21637;53.352;-6.356;2023-04-24T04:28:27;8.40;99.90
35531;DHT22;21637;53.352;-6.356;2023-04-24T04:30:53;8.30;99.90
35531;DHT22;21637;53.352;-6.356;2023-04-24T04:33:23;8.30;99.90
35531;DHT22;21637;53.352;-6.356;2023-04-24T04:35:50;8.30;99.90
35531;DHT22;21637;53.352;-6.356;2023-04-24T04:38:20;8.30;99.90
35531;DHT22;21637;53.352;-6.356;2023-04-24T04:40:46;8.10;99.90
35531;DHT22;21637;53.352;-6.356;2023-04-24T04:43:33;7.80;99.90
35531;DHT22;21637;53.352;-6.356;2023-04-24T04:46:26;7.20;99.90
35531;DHT22;21637;53.352;-6.356;2023-04-24T04:48:54;6.70;99.90
35531;DHT22;21637;53.352;-6.356;2023-04-24T04:51:22;6.40;99.90
35531;DHT22;21637;53.352;-6.356;2023-04-24T04:53:58;6.30;99.90
35531;DHT22;21637;53.352;-6.356;2023-04-24T04:56:24;6.40;99.90
35531;DHT22;21637;53.352;-6.356;2023-04-24T04:58:50;6.40;99.90
35531;DHT22;21637;53.352;-6.356;2023-04-24T05:01:15;6.50;99.90
35531;DHT22;21637;53.352;-6.356;2023-04-24T05:03:41;6.60;99.90
35531;DHT22;21637;53.352;-6.356;2023-04-24T05:06:07;6.70;99.90
35531;DHT22;21637;53.352;-6.356;2023-04-24T05:08:33;6.80;99.90
35531;DHT22;21637;53.352;-6.356;2023-04-24T05:10:59;6.90;99.90
35531;DHT22;21637;53.352;-6.356;2023-04-24T05:13:25;6.90;99.90
35531;DHT22;21637;53.352;-6.356;2023-04-24T05:15:51;6.90;99.90
35531;DHT22;21637;53.352;-6.356;2023-04-24T05:18:16;6.90;99.90
35531;DHT22;21637;53.352;-6.356;2023-04-24T05:20:42;7.00;99.90
35531;DHT22;21637;53.352;-6.356;2023-04-24T05:23:09;7.10;99.90
35531;DHT22;21637;53.352;-6.356;2023-04-24T05:25:35;7.20;99.90
35531;DHT22;21637;53.352;-6.356;2023-04-24T05:28:01;7.30;99.90
35531;DHT22;21637;53.352;-6.356;2023-04-24T05:30:28;7.20;99.90
35531;DHT22;21637;53.352;-6.356;2023-04-24T05:32:53;7.20;99.90
35531;DHT22;21637;53.352;-6.356;2023-04-24T05:35:19;7.30;99.90
35531;DHT22;21637;53.352;-6.356;2023-04-24T05:37:45;7.20;99.90
35531;DHT22;21637;53.352;-6.356;2023-04-24T05:40:11;7.20;99.90
35531;DHT22;21637;53.352;-6.356;2023-04-24T05:42:37;7.20;99.90
35531;DHT22;21637;53.352;-6.356;2023-04-24T05:45:03;7.00;99.90
35531;DHT22;21637;53.352;-6.356;2023-04-24T05:47:29;7.00;99.90
35531;DHT22;21637;53.352;-6.356;2023-04-24T05:49:55;6.90;99.90
35531;DHT22;21637;53.352;-6.356;2023-04-24T05:52:21;6.90;99.90
35531;DHT22;21637;53.352;-6.356;2023-04-24T05:54:46;6.80;99.90
35531;DHT22;21637;53.352;-6.356;2023-04-24T05:57:13;6.80;99.90
35531;DHT22;21637;53.352;-6.356;2023-04-24T05:59:38;6.70;99.90
35531;DHT22;21637;53.352;-6.356;2023-04-24T06:02:04;6.70;99.90
35531;DHT22;21637;53.352;-6.356;2023-04-24T06:04:31;6.70;99.90
35531;DHT22;21637;53.352;-6.356;2023-04-24T06:06:57;6.60;99.90
35531;DHT22;21637;53.352;-6.356;2023-04-24T06:09:22;6.70;99.90
35531;DHT22;21637;53.352;-6.356;2023-04-24T06:11:49;6.60;99.90
35531;DHT22;21637;53.352;-6.356;2023-04-24T06:14:15;6.60;99.90
35531;DHT22;21637;53.352;-6.356;2023-04-24T06:16:42;6.60;99.90
35531;DHT22;21637;53.352;-6.356;2023-04-24T06:19:08;6.60;99.90
35531;DHT22;21637;53.352;-6.356;2023-04-24T06:21:34;6.60;99.90
35531;DHT22;21637;53.352;-6.356;2023-04-24T06:24:00;6.60;99.90
35531;DHT22;21637;53.352;-6.356;2023-04-24T06:26:25;6.60;99.90
35531;DHT22;21637;53.352;-6.356;2023-04-24T06:28:52;6.60;99.90
35531;DHT22;21637;53.352;-6.356;2023-04-24T06:31:20;6.70;99.90
35531;DHT22;21637;53.352;-6.356;2023-04-24T06:33:46;6.70;99.90
35531;DHT22;21637;53.352;-6.356;2023-04-24T06:36:12;6.70;99.90
35531;DHT22;21637;53.352;-6.356;2023-04-24T06:38:38;6.70;99.90
35531;DHT22;21637;53.352;-6.356;2023-04-24T06:41:03;6.60;99.90
35531;DHT22;21637;53.352;-6.356;2023-04-24T06:43:31;6.50;99.90
35531;DHT22;21637;53.352;-6.356;2023-04-24T06:45:57;6.50;99.90
35531;DHT22;21637;53.352;-6.356;2023-04-24T06:48:24;6.50;99.90
35531;DHT22;21637;53.352;-6.356;2023-04-24T06:50:51;6.50;99.90
35531;DHT22;21637;53.352;-6.356;2023-04-24T06:53:17;6.40;99.90
35531;DHT22;21637;53.352;-6.356;2023-04-24T06:55:43;6.50;99.90
35531;DHT22;21637;53.352;-6.356;2023-04-24T06:58:10;6.50;99.90
35531;DHT22;21637;53.352;-6.356;2023-04-24T07:00:36;6.50;99.90
35531;DHT22;21637;53.352;-6.356;2023-04-24T07:03:02;6.40;99.90
35531;DHT22;21637;53.352;-6.356;2023-04-24T07:05:28;6.40;99.90
35531;DHT22;21637;53.352;-6.356;2023-04-24T07:07:54;6.30;99.90
35531;DHT22;21637;53.352;-6.356;2023-04-24T07:10:20;6.40;99.90
35531;DHT22;21637;53.352;-6.356;2023-04-24T07:12:46;6.40;99.90
35531;DHT22;21637;53.352;-6.356;2023-04-24T07:15:12;6.40;99.90
35531;DHT22;21637;53.352;-6.356;2023-04-24T07:17:38;6.40;99.90
35531;DHT22;21637;53.352;-6.356;2023-04-24T07:20:08;6.40;99.90
35531;DHT22;21637;53.352;-6.356;2023-04-24T07:22:36;6.40;99.90
35531;DHT22;21637;53.352;-6.356;2023-04-24T07:25:02;6.50;99.90
35531;DHT22;21637;53.352;-6.356;2023-04-24T07:27:28;6.50;99.90
35531;DHT22;21637;53.352;-6.356;2023-04-24T07:29:54;6.50;99.90
35531;DHT22;21637;53.352;-6.356;2023-04-24T07:32:20;6.60;99.90
35531;DHT22;21637;53.352;-6.356;2023-04-24T07:34:46;6.50;99.90
35531;DHT22;21637;53.352;-6.356;2023-04-24T07:37:11;6.60;99.90
35531;DHT22;21637;53.352;-6.356;2023-04-24T07:39:37;6.60;99.90
35531;DHT22;21637;53.352;-6.356;2023-04-24T07:42:03;6.60;99.90
35531;DHT22;21637;53.352;-6.356;2023-04-24T07:44:29;6.50;99.90
35531;DHT22;21637;53.352;-6.356;2023-04-24T07:46:55;6.40;99.90
35531;DHT22;21637;53.352;-6.356;2023-04-24T07:49:21;6.50;99.90
35531;DHT22;21637;53.352;-6.356;2023-04-24T07:51:47;6.40;99.90
35531;DHT22;21637;53.352;-6.356;2023-04-24T07:54:13;6.50;99.90
35531;DHT22;21637;53.352;-6.356;2023-04-24T07:56:38;6.50;99.90
35531;DHT22;21637;53.352;-6.356;2023-04-24T07:59:05;6.60;99.90
35531;DHT22;21637;53.352;-6.356;2023-04-24T08:01:31;6.60;99.90
35531;DHT22;21637;53.352;-6.356;2023-04-24T08:03:56;6.60;99.90
35531;DHT22;21637;53.352;-6.356;2023-04-24T08:06:22;6.70;99.90
35531;DHT22;21637;53.352;-6.356;2023-04-24T08:08:48;6.80;99.90
35531;DHT22;21637;53.352;-6.356;2023-04-24T08:11:14;7.00;99.90
35531;DHT22;21637;53.352;-6.356;2023-04-24T08:13:39;7.10;99.90
35531;DHT22;21637;53.352;-6.356;2023-04-24T08:16:05;7.20;99.90
35531;DHT22;21637;53.352;-6.356;2023-04-24T08:18:31;7.40;99.90
35531;DHT22;21637;53.352;-6.356;2023-04-24T08:20:57;7.20;99.90
35531;DHT22;21637;53.352;-6.356;2023-04-24T08:23:26;7.20;99.90
35531;DHT22;21637;53.352;-6.356;2023-04-24T08:25:52;7.30;99.90
35531;DHT22;21637;53.352;-6.356;2023-04-24T08:28:18;7.40;99.90
35531;DHT22;21637;53.352;-6.356;2023-04-24T08:30:46;7.40;99.90
35531;DHT22;21637;53.352;-6.356;2023-04-24T08:33:21;7.30;99.90
35531;DHT22;21637;53.352;-6.356;2023-04-24T08:35:47;7.30;99.90
35531;DHT22;21637;53.352;-6.356;2023-04-24T08:38:13;7.30;99.90
35531;DHT22;21637;53.352;-6.356;2023-04-24T08:40:39;7.30;99.90
35531;DHT22;21637;53.352;-6.356;2023-04-24T08:43:05;7.50;99.90
35531;DHT22;21637;53.352;-6.356;2023-04-24T08:45:32;7.60;99.90
35531;DHT22;21637;53.352;-6.356;2023-04-24T08:47:58;7.60;99.90
35531;DHT22;21637;53.352;-6.356;2023-04-24T08:50:25;7.40;99.90
35531;DHT22;21637;53.352;-6.356;2023-04-24T08:52:52;7.50;99.90
35531;DHT22;21637;53.352;-6.356;2023-04-24T08:55:20;7.60;99.90
35531;DHT22;21637;53.352;-6.356;2023-04-24T08:57:51;7.50;99.90
35531;DHT22;21637;53.352;-6.356;2023-04-24T09:00:21;7.50;99.90
35531;DHT22;21637;53.352;-6.356;2023-04-24T09:02:49;7.50;99.90
35531;DHT22;21637;53.352;-6.356;2023-04-24T09:05:17;7.50;99.90
35531;DHT22;21637;53.352;-6.356;2023-04-24T09:07:46;7.40;99.90
35531;DHT22;21637;53.352;-6.356;2023-04-24T09:10:15;7.50;99.90
35531;DHT22;21637;53.352;-6.356;2023-04-24T09:12:41;7.50;99.90
35531;DHT22;21637;53.352;-6.356;2023-04-24T09:15:08;7.40;99.90
35531;DHT22;21637;53.352;-6.356;2023-04-24T09:17:34;7.50;99.90
35531;DHT22;21637;53.352;-6.356;2023-04-24T09:20:01;7.50;99.90
35531;DHT22;21637;53.352;-6.356;2023-04-24T09:22:30;7.50;99.90
35531;DHT22;21637;53.352;-6.356;2023-04-24T09:25:07;7.50;99.90
35531;DHT22;21637;53.352;-6.356;2023-04-24T09:27:34;7.40;99.90
35531;DHT22;21637;53.352;-6.356;2023-04-24T09:30:01;7.40;99.90
35531;DHT22;21637;53.352;-6.356;2023-04-24T09:32:27;7.30;99.90
35531;DHT22;21637;53.352;-6.356;2023-04-24T09:35:08;7.30;99.90
35531;DHT22;21637;53.352;-6.356;2023-04-24T09:37:39;7.30;99.90
35531;DHT22;21637;53.352;-6.356;2023-04-24T09:40:10;7.40;99.90
35531;DHT22;21637;53.352;-6.356;2023-04-24T09:42:37;7.40;99.90
35531;DHT22;21637;53.352;-6.356;2023-04-24T09:45:04;7.40;99.90
35531;DHT22;21637;53.352;-6.356;2023-04-24T09:47:40;7.40;99.90
35531;DHT22;21637;53.352;-6.356;2023-04-24T09:50:13;7.40;99.90
35531;DHT22;21637;53.352;-6.356;2023-04-24T09:52:41;7.60;99.90
35531;DHT22;21637;53.352;-6.356;2023-04-24T09:55:18;7.70;99.90
35531;DHT22;21637;53.352;-6.356;2023-04-24T09:58:02;7.90;99.90
35531;DHT22;21637;53.352;-6.356;2023-04-24T10:00:33;7.90;99.90
35531;DHT22;21637;53.352;-6.356;2023-04-24T10:03:00;8.00;99.90
35531;DHT22;21637;53.352;-6.356;2023-04-24T10:05:29;8.10;99.90
35531;DHT22;21637;53.352;-6.356;2023-04-24T10:08:11;8.10;99.90
35531;DHT22;21637;53.352;-6.356;2023-04-24T10:10:44;8.00;99.90
35531;DHT22;21637;53.352;-6.356;2023-04-24T10:13:11;7.90;99.90
35531;DHT22;21637;53.352;-6.356;2023-04-24T10:15:38;7.70;99.90
35531;DHT22;21637;53.352;-6.356;2023-04-24T10:18:05;7.70;99.90
35531;DHT22;21637;53.352;-6.356;2023-04-24T10:20:33;7.70;99.90
35531;DHT22;21637;53.352;-6.356;2023-04-24T10:22:59;7.70;99.90
35531;DHT22;21637;53.352;-6.356;2023-04-24T10:25:28;7.90;99.90
35531;DHT22;21637;53.352;-6.356;2023-04-24T10:27:54;8.20;99.90
35531;DHT22;21637;53.352;-6.356;2023-04-24T10:30:26;8.40;99.90
35531;DHT22;21637;53.352;-6.356;2023-04-24T10:32:52;8.40;99.90
35531;DHT22;21637;53.352;-6.356;2023-04-24T10:35:19;8.60;99.90
35531;DHT22;21637;53.352;-6.356;2023-04-24T10:37:54;8.70;99.90
35531;DHT22;21637;53.352;-6.356;2023-04-24T10:40:33;8.80;99.90
35531;DHT22;21637;53.352;-6.356;2023-04-24T10:43:02;8.90;99.90
35531;DHT22;21637;53.352;-6.356;2023-04-24T10:45:28;8.90;99.90
35531;DHT22;21637;53.352;-6.356;2023-04-24T10:47:58;8.70;99.90
35531;DHT22;21637;53.352;-6.356;2023-04-24T10:50:28;8.80;99.90
35531;DHT22;21637;53.352;-6.356;2023-04-24T10:53:06;8.50;99.90
35531;DHT22;21637;53.352;-6.356;2023-04-24T10:55:43;8.30;99.90
35531;DHT22;21637;53.352;-6.356;2023-04-24T10:58:09;8.30;99.90
35531;DHT22;21637;53.352;-6.356;2023-04-24T11:00:40;8.30;99.90
35531;DHT22;21637;53.352;-6.356;2023-04-24T11:03:12;8.40;99.90
35531;DHT22;21637;53.352;-6.356;2023-04-24T11:08:28;8.50;99.90
35531;DHT22;21637;53.352;-6.356;2023-04-24T11:13:27;8.70;99.90
35531;DHT22;21637;53.352;-6.356;2023-04-24T11:16:35;8.70;99.90
35531;DHT22;21637;53.352;-6.356;2023-04-24T11:19:18;8.60;99.90
35531;DHT22;21637;53.352;-6.356;2023-04-24T11:21:54;8.50;99.90
35531;DHT22;21637;53.352;-6.356;2023-04-24T11:26:54;8.70;99.90
35531;DHT22;21637;53.352;-6.356;2023-04-24T11:29:21;8.70;99.90
35531;DHT22;21637;53.352;-6.356;2023-04-24T11:31:47;8.90;99.90
35531;DHT22;21637;53.352;-6.356;2023-04-24T11:34:17;9.00;99.90
35531;DHT22;21637;53.352;-6.356;2023-04-24T11:37:02;8.90;99.90
35531;DHT22;21637;53.352;-6.356;2023-04-24T11:39:27;9.00;99.90
35531;DHT22;21637;53.352;-6.356;2023-04-24T11:41:53;9.00;99.90
35531;DHT22;21637;53.352;-6.356;2023-04-24T11:44:27;9.00;99.90
35531;DHT22;21637;53.352;-6.356;2023-04-24T11:46:55;9.00;99.90
35531;DHT22;21637;53.352;-6.356;2023-04-24T11:49:21;8.90;99.90
35531;DHT22;21637;53.352;-6.356;2023-04-24T11:51:47;8.90;99.90
35531;DHT22;21637;53.352;-6.356;2023-04-24T11:54:13;9.00;99.90
35531;DHT22;21637;53.352;-6.356;2023-04-24T11:56:38;9.00;99.90
35531;DHT22;21637;53.352;-6.356;2023-04-24T11:59:04;9.10;99.90
35531;DHT22;21637;53.352;-6.356;2023-04-24T12:01:42;9.10;99.90
35531;DHT22;21637;53.352;-6.356;2023-04-24T12:04:08;9.10;99.90
35531;DHT22;21637;53.352;-6.356;2023-04-24T12:06:34;9.10;99.90
35531;DHT22;21637;53.352;-6.356;2023-04-24T12:09:00;9.20;99.90
35531;DHT22;21637;53.352;-6.356;2023-04-24T12:11:26;9.30;99.90
35531;DHT22;21637;53.352;-6.356;2023-04-24T12:13:51;9.40;99.90
35531;DHT22;21637;53.352;-6.356;2023-04-24T12:16:17;9.40;99.90
35531;DHT22;21637;53.352;-6.356;2023-04-24T12:18:44;9.30;99.90
35531;DHT22;21637;53.352;-6.356;2023-04-24T12:21:23;9.30;99.90
35531;DHT22;21637;53.352;-6.356;2023-04-24T12:23:54;9.30;99.90
35531;DHT22;21637;53.352;-6.356;2023-04-24T12:26:20;9.30;99.90
35531;DHT22;21637;53.352;-6.356;2023-04-24T12:28:49;9.30;99.90
35531;DHT22;21637;53.352;-6.356;2023-04-24T12:31:16;9.30;99.90
35531;DHT22;21637;53.352;-6.356;2023-04-24T12:33:42;9.30;99.90
35531;DHT22;21637;53.352;-6.356;2023-04-24T12:36:10;9.20;99.90
35531;DHT22;21637;53.352;-6.356;2023-04-24T12:38:38;9.30;99.90
35531;DHT22;21637;53.352;-6.356;2023-04-24T12:41:07;9.20;99.90
35531;DHT22;21637;53.352;-6.356;2023-04-24T12:43:33;9.20;99.90
35531;DHT22;21637;53.352;-6.356;2023-04-24T12:45:59;9.20;99.90
35531;DHT22;21637;53.352;-6.356;2023-04-24T12:48:26;9.20;99.90
35531;DHT22;21637;53.352;-6.356;2023-04-24T12:50:52;9.20;99.90
35531;DHT22;21637;53.352;-6.356;2023-04-24T12:53:18;9.40;99.90
35531;DHT22;21637;53.352;-6.356;2023-04-24T12:55:44;9.30;99.90
35531;DHT22;21637;53.352;-6.356;2023-04-24T12:58:10;9.40;99.90
35531;DHT22;21637;53.352;-6.356;2023-04-24T13:00:36;9.30;99.90
35531;DHT22;21637;53.352;-6.356;2023-04-24T13:03:02;9.40;99.90
35531;DHT22;21637;53.352;-6.356;2023-04-24T13:05:28;9.40;99.90
35531;DHT22;21637;53.352;-6.356;2023-04-24T13:07:54;9.40;99.90
35531;DHT22;21637;53.352;-6.356;2023-04-24T13:10:20;9.40;99.90
35531;DHT22;21637;53.352;-6.356;2023-04-24T13:12:45;9.20;99.90
35531;DHT22;21637;53.352;-6.356;2023-04-24T13:15:12;9.20;99.90
35531;DHT22;21637;53.352;-6.356;2023-04-24T13:17:37;9.20;99.90
35531;DHT22;21637;53.352;-6.356;2023-04-24T13:20:05;9.20;99.90
35531;DHT22;21637;53.352;-6.356;2023-04-24T13:22:31;9.20;99.90
35531;DHT22;21637;53.352;-6.356;2023-04-24T13:24:57;9.10;99.90
35531;DHT22;21637;53.352;-6.356;2023-04-24T13:27:23;9.10;99.90
35531;DHT22;21637;53.352;-6.356;2023-04-24T13:29:48;9.10;99.90
35531;DHT22;21637;53.352;-6.356;2023-04-24T13:32:14;9.20;99.90
35531;DHT22;21637;53.352;-6.356;2023-04-24T13:34:40;9.10;99.90
35531;DHT22;21637;53.352;-6.356;2023-04-24T13:37:06;9.20;99.90
35531;DHT22;21637;53.352;-6.356;2023-04-24T13:39:33;9.10;99.90
35531;DHT22;21637;53.352;-6.356;2023-04-24T13:41:59;9.10;99.90
35531;DHT22;21637;53.352;-6.356;2023-04-24T13:44:25;9.10;99.90
35531;DHT22;21637;53.352;-6.356;2023-04-24T13:46:53;9.10;99.90
35531;DHT22;21637;53.352;-6.356;2023-04-24T13:49:21;9.00;99.90
35531;DHT22;21637;53.352;-6.356;2023-04-24T13:51:47;9.10;99.90
35531;DHT22;21637;53.352;-6.356;2023-04-24T13:54:13;9.10;99.90
35531;DHT22;21637;53.352;-6.356;2023-04-24T13:56:39;9.30;99.90
35531;DHT22;21637;53.352;-6.356;2023-04-24T13:59:05;9.30;99.90
35531;DHT22;21637;53.352;-6.356;2023-04-24T14:01:32;9.40;99.90
35531;DHT22;21637;53.352;-6.356;2023-04-24T14:03:57;9.30;99.90
35531;DHT22;21637;53.352;-6.356;2023-04-24T14:06:23;9.40;99.90
35531;DHT22;21637;53.352;-6.356;2023-04-24T14:08:50;9.40;99.90
35531;DHT22;21637;53.352;-6.356;2023-04-24T14:11:16;9.40;99.90
35531;DHT22;21637;53.352;-6.356;2023-04-24T14:13:42;9.40;99.90
35531;DHT22;21637;53.352;-6.356;2023-04-24T14:16:09;9.40;99.90
35531;DHT22;21637;53.352;-6.356;2023-04-24T14:18:35;9.50;99.90
35531;DHT22;21637;53.352;-6.356;2023-04-24T14:21:02;9.40;99.90
35531;DHT22;21637;53.352;-6.356;2023-04-24T14:23:28;9.40;99.90
35531;DHT22;21637;53.352;-6.356;2023-04-24T14:25:54;9.40;99.90
35531;DHT22;21637;53.352;-6.356;2023-04-24T14:28:20;9.40;99.90
35531;DHT22;21637;53.352;-6.356;2023-04-24T14:30:47;9.30;99.90
35531;DHT22;21637;53.352;-6.356;2023-04-24T14:33:13;9.30;99.90
35531;DHT22;21637;53.352;-6.356;2023-04-24T14:35:40;9.40;99.90
35531;DHT22;21637;53.352;-6.356;2023-04-24T14:38:07;9.40;99.90
35531;DHT22;21637;53.352;-6.356;2023-04-24T14:40:33;9.20;99.90
35531;DHT22;21637;53.352;-6.356;2023-04-24T14:42:58;9.20;99.90
35531;DHT22;21637;53.352;-6.356;2023-04-24T14:45:25;9.20;99.90
35531;DHT22;21637;53.352;-6.356;2023-04-24T14:47:51;9.30;99.90
35531;DHT22;21637;53.352;-6.356;2023-04-24T14:50:17;9.30;99.90
35531;DHT22;21637;53.352;-6.356;2023-04-24T14:52:43;9.30;99.90
35531;DHT22;21637;53.352;-6.356;2023-04-24T14:55:08;9.40;99.90
35531;DHT22;21637;53.352;-6.356;2023-04-24T14:57:34;9.50;99.90
35531;DHT22;21637;53.352;-6.356;2023-04-24T15:00:02;9.50;99.90
35531;DHT22;21637;53.352;-6.356;2023-04-24T15:02:29;9.60;99.90
35531;DHT22;21637;53.352;-6.356;2023-04-24T15:04:55;9.70;99.90
35531;DHT22;21637;53.352;-6.356;2023-04-24T15:07:21;9.60;99.90
35531;DHT22;21637;53.352;-6.356;2023-04-24T15:09:47;9.50;99.90
35531;DHT22;21637;53.352;-6.356;2023-04-24T15:12:13;9.50;99.90
35531;DHT22;21637;53.352;-6.356;2023-04-24T15:14:39;9.60;99.90
35531;DHT22;21637;53.352;-6.356;2023-04-24T15:17:04;9.60;99.90
35531;DHT22;21637;53.352;-6.356;2023-04-24T15:19:31;9.60;99.90
35531;DHT22;21637;53.352;-6.356;2023-04-24T15:21:56;9.60;99.90
35531;DHT22;21637;53.352;-6.356;2023-04-24T15:24:22;9.60;99.90
35531;DHT22;21637;53.352;-6.356;2023-04-24T15:26:48;9.70;99.90
35531;DHT22;21637;53.352;-6.356;2023-04-24T15:29:13;9.70;99.90
35531;DHT22;21637;53.352;-6.356;2023-04-24T15:31:39;9.70;99.90
35531;DHT22;21637;53.352;-6.356;2023-04-24T15:34:06;9.80;99.90
35531;DHT22;21637;53.352;-6.356;2023-04-24T15:36:32;9.90;99.90